sensor_id;sensor_type;location;lat;lon;timestamp;P1;durP1;ratioP1;P2;durP2;ratioP2
57565;SDS011;63999;43.882;-0.310;2023-02-23T00:01:48;30.48;;;12.25;;
57565;SDS011;63999;43.882;-0.310;2023-02-23T00:04:14;32.67;;;12.13;;
57565;SDS011;63999;43.882;-0.310;2023-02-23T00:06:42;28.67;;;10.48;;
57565;SDS011;63999;43.882;-0.310;2023-02-23T00:09:09;24.70;;;10.90;;
57565;SDS011;63999;43.882;-0.310;2023-02-23T00:11:47;27.33;;;10.90;;
57565;SDS011;63999;43.882;-0.310;2023-02-23T00:14:14;26.63;;;11.25;;
57565;SDS011;63999;43.882;-0.310;2023-02-23T00:16:39;29.90;;;11.20;;
57565;SDS011;63999;43.882;-0.310;2023-02-23T00:19:09;34.92;;;11.23;;
57565;SDS011;63999;43.882;-0.310;2023-02-23T00:21:38;36.53;;;12.65;;
57565;SDS011;63999;43.882;-0.310;2023-02-23T00:24:05;32.00;;;11.63;;
57565;SDS011;63999;43.882;-0.310;2023-02-23T00:26:33;28.70;;;11.63;;
57565;SDS011;63999;43.882;-0.310;2023-02-23T00:29:04;37.55;;;13.00;;
57565;SDS011;63999;43.882;-0.310;2023-02-23T00:31:36;30.52;;;12.63;;
57565;SDS011;63999;43.882;-0.310;2023-02-23T00:34:03;28.95;;;11.55;;
57565;SDS011;63999;43.882;-0.310;2023-02-23T00:36:30;33.38;;;12.60;;
57565;SDS011;63999;43.882;-0.310;2023-02-23T00:38:58;36.90;;;12.85;;
57565;SDS011;63999;43.882;-0.310;2023-02-23T00:41:26;33.28;;;13.23;;
57565;SDS011;63999;43.882;-0.310;2023-02-23T00:43:58;38.17;;;13.18;;
57565;SDS011;63999;43.882;-0.310;2023-02-23T00:48:52;34.78;;;13.38;;
57565;SDS011;63999;43.882;-0.310;2023-02-23T00:51:22;25.00;;;11.13;;
57565;SDS011;63999;43.882;-0.310;2023-02-23T00:53:57;31.98;;;12.95;;
57565;SDS011;63999;43.882;-0.310;2023-02-23T00:56:24;29.63;;;12.00;;
57565;SDS011;63999;43.882;-0.310;2023-02-23T00:58:50;26.33;;;12.32;;
57565;SDS011;63999;43.882;-0.310;2023-02-23T01:01:16;35.92;;;14.15;;
57565;SDS011;63999;43.882;-0.310;2023-02-23T01:03:43;34.58;;;13.65;;
57565;SDS011;63999;43.882;-0.310;2023-02-23T01:06:11;28.27;;;12.27;;
57565;SDS011;63999;43.882;-0.310;2023-02-23T01:08:42;35.85;;;12.27;;
57565;SDS011;63999;43.882;-0.310;2023-02-23T01:11:12;30.75;;;11.40;;
57565;SDS011;63999;43.882;-0.310;2023-02-23T01:13:41;29.63;;;11.98;;
57565;SDS011;63999;43.882;-0.310;2023-02-23T01:16:10;27.58;;;11.10;;
57565;SDS011;63999;43.882;-0.310;2023-02-23T01:18:37;27.23;;;12.57;;
57565;SDS011;63999;43.882;-0.310;2023-02-23T01:21:05;31.50;;;12.95;;
57565;SDS011;63999;43.882;-0.310;2023-02-23T01:23:40;26.58;;;11.98;;
57565;SDS011;63999;43.882;-0.310;2023-02-23T01:26:13;29.85;;;12.48;;
57565;SDS011;63999;43.882;-0.310;2023-02-23T01:28:49;30.33;;;11.43;;
57565;SDS011;63999;43.882;-0.310;2023-02-23T01:31:22;35.50;;;12.40;;
57565;SDS011;63999;43.882;-0.310;2023-02-23T01:33:52;34.38;;;13.57;;
57565;SDS011;63999;43.882;-0.310;2023-02-23T01:36:19;30.00;;;11.90;;
57565;SDS011;63999;43.882;-0.310;2023-02-23T01:38:45;25.65;;;12.20;;
57565;SDS011;63999;43.882;-0.310;2023-02-23T01:41:11;31.20;;;11.38;;
57565;SDS011;63999;43.882;-0.310;2023-02-23T01:46:31;24.98;;;10.88;;
57565;SDS011;63999;43.882;-0.310;2023-02-23T01:49:03;27.02;;;10.95;;
57565;SDS011;63999;43.882;-0.310;2023-02-23T01:51:36;26.33;;;10.13;;
57565;SDS011;63999;43.882;-0.310;2023-02-23T01:54:17;31.38;;;11.82;;
57565;SDS011;63999;43.882;-0.310;2023-02-23T01:56:48;30.00;;;12.00;;
57565;SDS011;63999;43.882;-0.310;2023-02-23T01:59:22;29.98;;;11.52;;
57565;SDS011;63999;43.882;-0.310;2023-02-23T02:01:58;29.67;;;11.32;;
57565;SDS011;63999;43.882;-0.310;2023-02-23T02:04:24;31.83;;;10.52;;
57565;SDS011;63999;43.882;-0.310;2023-02-23T02:06:50;30.20;;;11.63;;
57565;SDS011;63999;43.882;-0.310;2023-02-23T02:09:19;29.58;;;11.77;;
57565;SDS011;63999;43.882;-0.310;2023-02-23T02:11:51;32.63;;;11.23;;
57565;SDS011;63999;43.882;-0.310;2023-02-23T02:14:21;25.35;;;11.65;;
57565;SDS011;63999;43.882;-0.310;2023-02-23T02:44:56;27.20;;;11.38;;
57565;SDS011;63999;43.882;-0.310;2023-02-23T02:47:27;18.88;;;8.48;;
57565;SDS011;63999;43.882;-0.310;2023-02-23T02:50:36;12.27;;;6.57;;
57565;SDS011;63999;43.882;-0.310;2023-02-23T02:53:27;17.55;;;8.07;;
57565;SDS011;63999;43.882;-0.310;2023-02-23T02:56:06;17.00;;;7.38;;
57565;SDS011;63999;43.882;-0.310;2023-02-23T02:58:33;14.02;;;7.07;;
57565;SDS011;63999;43.882;-0.310;2023-02-23T03:01:07;15.43;;;7.72;;
57565;SDS011;63999;43.882;-0.310;2023-02-23T03:03:56;16.63;;;7.15;;
57565;SDS011;63999;43.882;-0.310;2023-02-23T03:06:48;18.00;;;8.68;;
57565;SDS011;63999;43.882;-0.310;2023-02-23T03:21:32;18.20;;;9.20;;
57565;SDS011;63999;43.882;-0.310;2023-02-23T03:31:19;25.25;;;10.32;;
57565;SDS011;63999;43.882;-0.310;2023-02-23T03:34:16;20.30;;;9.65;;
57565;SDS011;63999;43.882;-0.310;2023-02-23T03:40:28;22.73;;;10.50;;
57565;SDS011;63999;43.882;-0.310;2023-02-23T03:43:21;24.30;;;10.10;;
57565;SDS011;63999;43.882;-0.310;2023-02-23T03:46:09;26.38;;;10.60;;
57565;SDS011;63999;43.882;-0.310;2023-02-23T03:48:57;22.50;;;9.80;;
57565;SDS011;63999;43.882;-0.310;2023-02-23T03:51:45;26.83;;;10.38;;
57565;SDS011;63999;43.882;-0.310;2023-02-23T03:54:36;21.50;;;10.30;;
57565;SDS011;63999;43.882;-0.310;2023-02-23T03:57:27;31.30;;;10.43;;
57565;SDS011;63999;43.882;-0.310;2023-02-23T04:00:18;21.75;;;10.00;;
57565;SDS011;63999;43.882;-0.310;2023-02-23T04:03:08;19.67;;;9.52;;
57565;SDS011;63999;43.882;-0.310;2023-02-23T04:05:55;26.70;;;10.00;;
57565;SDS011;63999;43.882;-0.310;2023-02-23T04:08:40;23.17;;;9.70;;
57565;SDS011;63999;43.882;-0.310;2023-02-23T04:11:27;23.90;;;9.95;;
57565;SDS011;63999;43.882;-0.310;2023-02-23T04:14:19;22.45;;;10.40;;
57565;SDS011;63999;43.882;-0.310;2023-02-23T04:16:55;26.23;;;10.32;;
57565;SDS011;63999;43.882;-0.310;2023-02-23T04:19:24;28.85;;;10.35;;
57565;SDS011;63999;43.882;-0.310;2023-02-23T04:21:51;20.58;;;9.27;;
57565;SDS011;63999;43.882;-0.310;2023-02-23T04:24:17;25.70;;;9.93;;
57565;SDS011;63999;43.882;-0.310;2023-02-23T04:26:43;22.95;;;9.30;;
57565;SDS011;63999;43.882;-0.310;2023-02-23T04:29:10;22.50;;;9.27;;
57565;SDS011;63999;43.882;-0.310;2023-02-23T04:31:36;30.90;;;10.48;;
57565;SDS011;63999;43.882;-0.310;2023-02-23T04:34:02;21.13;;;9.43;;
57565;SDS011;63999;43.882;-0.310;2023-02-23T04:36:29;25.00;;;10.10;;
57565;SDS011;63999;43.882;-0.310;2023-02-23T04:38:55;26.15;;;10.40;;
57565;SDS011;63999;43.882;-0.310;2023-02-23T04:41:20;19.33;;;8.20;;
57565;SDS011;63999;43.882;-0.310;2023-02-23T04:43:46;17.02;;;8.75;;
57565;SDS011;63999;43.882;-0.310;2023-02-23T04:46:13;21.15;;;8.43;;
57565;SDS011;63999;43.882;-0.310;2023-02-23T04:48:39;21.58;;;8.05;;
57565;SDS011;63999;43.882;-0.310;2023-02-23T04:51:04;21.70;;;9.02;;
57565;SDS011;63999;43.882;-0.310;2023-02-23T04:53:30;16.02;;;7.15;;
57565;SDS011;63999;43.882;-0.310;2023-02-23T04:55:56;14.90;;;6.78;;
57565;SDS011;63999;43.882;-0.310;2023-02-23T04:58:22;15.98;;;6.30;;
57565;SDS011;63999;43.882;-0.310;2023-02-23T05:00:48;18.30;;;7.53;;
57565;SDS011;63999;43.882;-0.310;2023-02-23T05:03:14;16.42;;;7.72;;
57565;SDS011;63999;43.882;-0.310;2023-02-23T05:05:41;14.40;;;6.28;;
57565;SDS011;63999;43.882;-0.310;2023-02-23T05:08:08;12.57;;;5.85;;
57565;SDS011;63999;43.882;-0.310;2023-02-23T05:10:34;9.50;;;4.63;;
57565;SDS011;63999;43.882;-0.310;2023-02-23T05:13:00;13.68;;;6.07;;
57565;SDS011;63999;43.882;-0.310;2023-02-23T05:15:27;10.32;;;5.03;;
57565;SDS011;63999;43.882;-0.310;2023-02-23T05:17:53;7.05;;;2.05;;
57565;SDS011;63999;43.882;-0.310;2023-02-23T05:20:20;10.70;;;5.18;;
57565;SDS011;63999;43.882;-0.310;2023-02-23T05:22:46;8.23;;;3.70;;
57565;SDS011;63999;43.882;-0.310;2023-02-23T05:25:12;7.47;;;3.20;;
57565;SDS011;63999;43.882;-0.310;2023-02-23T05:27:39;4.55;;;2.45;;
57565;SDS011;63999;43.882;-0.310;2023-02-23T05:30:06;2.28;;;1.05;;
57565;SDS011;63999;43.882;-0.310;2023-02-23T05:32:34;6.22;;;2.47;;
57565;SDS011;63999;43.882;-0.310;2023-02-23T05:35:00;5.20;;;2.17;;
57565;SDS011;63999;43.882;-0.310;2023-02-23T05:37:26;2.78;;;1.15;;
57565;SDS011;63999;43.882;-0.310;2023-02-23T05:39:52;2.03;;;1.10;;
57565;SDS011;63999;43.882;-0.310;2023-02-23T05:42:18;0.70;;;0.45;;
57565;SDS011;63999;43.882;-0.310;2023-02-23T05:44:44;0.70;;;0.55;;
57565;SDS011;63999;43.882;-0.310;2023-02-23T05:47:09;3.03;;;1.40;;
57565;SDS011;63999;43.882;-0.310;2023-02-23T05:49:36;0.93;;;0.20;;
57565;SDS011;63999;43.882;-0.310;2023-02-23T05:52:02;1.73;;;0.80;;
57565;SDS011;63999;43.882;-0.310;2023-02-23T05:54:28;1.20;;;0.65;;
57565;SDS011;63999;43.882;-0.310;2023-02-23T05:56:54;1.48;;;0.40;;
57565;SDS011;63999;43.882;-0.310;2023-02-23T05:59:20;5.85;;;0.52;;
57565;SDS011;63999;43.882;-0.310;2023-02-23T06:01:45;1.15;;;0.55;;
57565;SDS011;63999;43.882;-0.310;2023-02-23T06:04:11;0.90;;;0.50;;
57565;SDS011;63999;43.882;-0.310;2023-02-23T06:06:38;3.35;;;0.40;;
57565;SDS011;63999;43.882;-0.310;2023-02-23T06:09:04;1.15;;;0.40;;
57565;SDS011;63999;43.882;-0.310;2023-02-23T06:11:30;1.27;;;0.40;;
57565;SDS011;63999;43.882;-0.310;2023-02-23T06:13:57;2.58;;;0.50;;
57565;SDS011;63999;43.882;-0.310;2023-02-23T06:16:23;0.60;;;0.40;;
57565;SDS011;63999;43.882;-0.310;2023-02-23T06:18:50;0.28;;;0.22;;
57565;SDS011;63999;43.882;-0.310;2023-02-23T06:21:16;0.95;;;0.30;;
57565;SDS011;63999;43.882;-0.310;2023-02-23T06:23:42;0.82;;;0.40;;
57565;SDS011;63999;43.882;-0.310;2023-02-23T06:26:09;0.68;;;0.40;;
57565;SDS011;63999;43.882;-0.310;2023-02-23T06:28:35;0.70;;;0.40;;
57565;SDS011;63999;43.882;-0.310;2023-02-23T06:31:01;0.65;;;0.40;;
57565;SDS011;63999;43.882;-0.310;2023-02-23T06:33:27;1.75;;;0.40;;
57565;SDS011;63999;43.882;-0.310;2023-02-23T06:35:53;1.08;;;0.30;;
57565;SDS011;63999;43.882;-0.310;2023-02-23T06:38:19;0.65;;;0.10;;
57565;SDS011;63999;43.882;-0.310;2023-02-23T06:40:46;0.20;;;0.10;;
57565;SDS011;63999;43.882;-0.310;2023-02-23T06:43:15;0.55;;;0.30;;
57565;SDS011;63999;43.882;-0.310;2023-02-23T06:45:42;1.52;;;0.13;;
57565;SDS011;63999;43.882;-0.310;2023-02-23T06:48:08;0.50;;;0.20;;
57565;SDS011;63999;43.882;-0.310;2023-02-23T06:50:34;2.42;;;0.30;;
57565;SDS011;63999;43.882;-0.310;2023-02-23T06:52:59;1.30;;;0.20;;
57565;SDS011;63999;43.882;-0.310;2023-02-23T06:55:25;0.85;;;0.30;;
57565;SDS011;63999;43.882;-0.310;2023-02-23T06:57:52;0.40;;;0.30;;
57565;SDS011;63999;43.882;-0.310;2023-02-23T07:00:21;1.00;;;0.40;;
57565;SDS011;63999;43.882;-0.310;2023-02-23T07:02:47;1.15;;;0.60;;
57565;SDS011;63999;43.882;-0.310;2023-02-23T07:05:13;1.02;;;0.40;;
57565;SDS011;63999;43.882;-0.310;2023-02-23T07:07:39;1.50;;;0.32;;
57565;SDS011;63999;43.882;-0.310;2023-02-23T07:10:05;1.65;;;0.50;;
57565;SDS011;63999;43.882;-0.310;2023-02-23T07:12:31;26.92;;;15.80;;
57565;SDS011;63999;43.882;-0.310;2023-02-23T07:14:57;19.13;;;10.00;;
57565;SDS011;63999;43.882;-0.310;2023-02-23T07:17:23;31.05;;;14.23;;
57565;SDS011;63999;43.882;-0.310;2023-02-23T07:19:48;55.63;;;26.17;;
57565;SDS011;63999;43.882;-0.310;2023-02-23T07:22:14;16.25;;;6.68;;
57565;SDS011;63999;43.882;-0.310;2023-02-23T07:24:40;8.20;;;2.50;;
57565;SDS011;63999;43.882;-0.310;2023-02-23T07:27:06;11.52;;;5.85;;
57565;SDS011;63999;43.882;-0.310;2023-02-23T07:29:31;46.45;;;27.95;;
57565;SDS011;63999;43.882;-0.310;2023-02-23T07:31:57;14.05;;;8.18;;
57565;SDS011;63999;43.882;-0.310;2023-02-23T07:34:23;13.90;;;7.75;;
57565;SDS011;63999;43.882;-0.310;2023-02-23T07:36:49;12.52;;;9.38;;
57565;SDS011;63999;43.882;-0.310;2023-02-23T07:39:15;17.85;;;11.77;;
57565;SDS011;63999;43.882;-0.310;2023-02-23T07:41:40;5.03;;;2.45;;
57565;SDS011;63999;43.882;-0.310;2023-02-23T07:44:06;23.20;;;15.50;;
57565;SDS011;63999;43.882;-0.310;2023-02-23T07:46:32;8.73;;;5.82;;
57565;SDS011;63999;43.882;-0.310;2023-02-23T07:48:58;14.35;;;8.70;;
57565;SDS011;63999;43.882;-0.310;2023-02-23T07:51:23;10.90;;;7.32;;
57565;SDS011;63999;43.882;-0.310;2023-02-23T07:53:49;1.88;;;0.90;;
57565;SDS011;63999;43.882;-0.310;2023-02-23T07:56:15;4.15;;;2.50;;
57565;SDS011;63999;43.882;-0.310;2023-02-23T07:58:41;1.75;;;1.10;;
57565;SDS011;63999;43.882;-0.310;2023-02-23T08:01:10;2.58;;;1.45;;
57565;SDS011;63999;43.882;-0.310;2023-02-23T08:03:37;1.73;;;0.63;;
57565;SDS011;63999;43.882;-0.310;2023-02-23T08:06:03;3.30;;;0.95;;
57565;SDS011;63999;43.882;-0.310;2023-02-23T08:08:29;2.75;;;0.73;;
57565;SDS011;63999;43.882;-0.310;2023-02-23T08:10:59;2.80;;;0.88;;
57565;SDS011;63999;43.882;-0.310;2023-02-23T08:13:25;3.08;;;0.65;;
57565;SDS011;63999;43.882;-0.310;2023-02-23T08:15:51;2.20;;;0.82;;
57565;SDS011;63999;43.882;-0.310;2023-02-23T08:18:17;1.23;;;0.60;;
57565;SDS011;63999;43.882;-0.310;2023-02-23T08:20:43;1.35;;;0.65;;
57565;SDS011;63999;43.882;-0.310;2023-02-23T08:23:09;3.75;;;0.88;;
57565;SDS011;63999;43.882;-0.310;2023-02-23T08:25:35;2.13;;;1.02;;
57565;SDS011;63999;43.882;-0.310;2023-02-23T08:28:01;3.67;;;2.35;;
57565;SDS011;63999;43.882;-0.310;2023-02-23T08:30:28;1.08;;;0.90;;
57565;SDS011;63999;43.882;-0.310;2023-02-23T08:32:55;2.03;;;0.85;;
57565;SDS011;63999;43.882;-0.310;2023-02-23T08:35:22;2.13;;;1.05;;
57565;SDS011;63999;43.882;-0.310;2023-02-23T08:37:47;2.83;;;1.15;;
57565;SDS011;63999;43.882;-0.310;2023-02-23T08:40:13;1.42;;;1.00;;
57565;SDS011;63999;43.882;-0.310;2023-02-23T08:42:40;1.17;;;0.88;;
57565;SDS011;63999;43.882;-0.310;2023-02-23T08:45:07;1.63;;;0.80;;
57565;SDS011;63999;43.882;-0.310;2023-02-23T08:47:33;1.95;;;1.02;;
57565;SDS011;63999;43.882;-0.310;2023-02-23T08:50:00;3.08;;;1.25;;
57565;SDS011;63999;43.882;-0.310;2023-02-23T08:52:26;3.92;;;1.67;;
57565;SDS011;63999;43.882;-0.310;2023-02-23T08:54:52;26.30;;;12.32;;
57565;SDS011;63999;43.882;-0.310;2023-02-23T08:57:19;20.90;;;8.10;;
57565;SDS011;63999;43.882;-0.310;2023-02-23T08:59:45;13.15;;;5.10;;
57565;SDS011;63999;43.882;-0.310;2023-02-23T09:02:12;4.47;;;1.83;;
57565;SDS011;63999;43.882;-0.310;2023-02-23T09:04:39;4.53;;;1.77;;
57565;SDS011;63999;43.882;-0.310;2023-02-23T09:07:09;2.40;;;1.00;;
57565;SDS011;63999;43.882;-0.310;2023-02-23T09:09:39;3.13;;;1.15;;
57565;SDS011;63999;43.882;-0.310;2023-02-23T09:12:05;1.92;;;0.88;;
57565;SDS011;63999;43.882;-0.310;2023-02-23T09:14:31;2.28;;;0.80;;
57565;SDS011;63999;43.882;-0.310;2023-02-23T09:16:57;0.82;;;0.40;;
57565;SDS011;63999;43.882;-0.310;2023-02-23T09:19:23;2.47;;;2.03;;
57565;SDS011;63999;43.882;-0.310;2023-02-23T09:21:51;3.13;;;0.90;;
57565;SDS011;63999;43.882;-0.310;2023-02-23T09:24:18;4.68;;;1.00;;
57565;SDS011;63999;43.882;-0.310;2023-02-23T09:26:45;1.27;;;0.70;;
57565;SDS011;63999;43.882;-0.310;2023-02-23T09:29:12;4.43;;;0.90;;
57565;SDS011;63999;43.882;-0.310;2023-02-23T09:31:38;1.98;;;0.80;;
57565;SDS011;63999;43.882;-0.310;2023-02-23T09:34:03;2.38;;;0.85;;
57565;SDS011;63999;43.882;-0.310;2023-02-23T09:36:29;1.98;;;1.00;;
57565;SDS011;63999;43.882;-0.310;2023-02-23T09:38:56;1.75;;;1.10;;
57565;SDS011;63999;43.882;-0.310;2023-02-23T09:49:33;2.92;;;1.25;;
57565;SDS011;63999;43.882;-0.310;2023-02-23T09:52:02;2.35;;;1.42;;
57565;SDS011;63999;43.882;-0.310;2023-02-23T09:54:32;2.65;;;1.60;;
57565;SDS011;63999;43.882;-0.310;2023-02-23T09:57:00;2.17;;;1.15;;
57565;SDS011;63999;43.882;-0.310;2023-02-23T09:59:29;1.13;;;0.70;;
57565;SDS011;63999;43.882;-0.310;2023-02-23T10:04:46;2.60;;;0.82;;
57565;SDS011;63999;43.882;-0.310;2023-02-23T10:07:42;4.30;;;1.23;;
57565;SDS011;63999;43.882;-0.310;2023-02-23T10:10:46;2.25;;;1.20;;
57565;SDS011;63999;43.882;-0.310;2023-02-23T10:13:21;3.33;;;1.80;;
57565;SDS011;63999;43.882;-0.310;2023-02-23T10:15:55;4.05;;;2.92;;
57565;SDS011;63999;43.882;-0.310;2023-02-23T10:32:01;3.80;;;1.55;;
57565;SDS011;63999;43.882;-0.310;2023-02-23T10:34:48;3.03;;;1.23;;
57565;SDS011;63999;43.882;-0.310;2023-02-23T10:37:21;2.85;;;0.90;;
57565;SDS011;63999;43.882;-0.310;2023-02-23T10:39:49;1.67;;;0.68;;
57565;SDS011;63999;43.882;-0.310;2023-02-23T10:42:20;2.05;;;0.50;;
57565;SDS011;63999;43.882;-0.310;2023-02-23T10:44:52;2.08;;;1.10;;
57565;SDS011;63999;43.882;-0.310;2023-02-23T10:47:20;1.80;;;0.88;;
57565;SDS011;63999;43.882;-0.310;2023-02-23T10:49:51;1.48;;;0.70;;
57565;SDS011;63999;43.882;-0.310;2023-02-23T10:52:21;1.80;;;0.70;;
57565;SDS011;63999;43.882;-0.310;2023-02-23T10:54:57;0.98;;;0.80;;
57565;SDS011;63999;43.882;-0.310;2023-02-23T11:00:05;2.28;;;1.00;;
57565;SDS011;63999;43.882;-0.310;2023-02-23T11:02:43;1.40;;;0.75;;
57565;SDS011;63999;43.882;-0.310;2023-02-23T11:10:40;1.90;;;1.10;;
57565;SDS011;63999;43.882;-0.310;2023-02-23T11:13:19;1.73;;;1.00;;
57565;SDS011;63999;43.882;-0.310;2023-02-23T11:15:46;2.13;;;1.08;;
57565;SDS011;63999;43.882;-0.310;2023-02-23T11:18:20;4.97;;;3.50;;
57565;SDS011;63999;43.882;-0.310;2023-02-23T11:20:48;3.40;;;2.20;;
57565;SDS011;63999;43.882;-0.310;2023-02-23T11:25:54;1.27;;;0.88;;
57565;SDS011;63999;43.882;-0.310;2023-02-23T11:28:26;3.78;;;3.38;;
57565;SDS011;63999;43.882;-0.310;2023-02-23T11:31:02;4.18;;;2.22;;
57565;SDS011;63999;43.882;-0.310;2023-02-23T11:33:37;2.40;;;2.20;;
57565;SDS011;63999;43.882;-0.310;2023-02-23T11:36:17;2.42;;;2.00;;
57565;SDS011;63999;43.882;-0.310;2023-02-23T11:38:59;3.13;;;1.65;;
57565;SDS011;63999;43.882;-0.310;2023-02-23T11:41:29;1.60;;;0.82;;
57565;SDS011;63999;43.882;-0.310;2023-02-23T11:43:59;1.80;;;0.90;;
57565;SDS011;63999;43.882;-0.310;2023-02-23T11:46:27;9.70;;;5.68;;
57565;SDS011;63999;43.882;-0.310;2023-02-23T11:49:05;320.17;;;175.15;;
57565;SDS011;63999;43.882;-0.310;2023-02-23T11:51:36;577.90;;;407.05;;
57565;SDS011;63999;43.882;-0.310;2023-02-23T11:54:04;398.88;;;236.57;;
57565;SDS011;63999;43.882;-0.310;2023-02-23T11:56:34;215.80;;;124.05;;
57565;SDS011;63999;43.882;-0.310;2023-02-23T11:59:02;104.07;;;67.65;;
57565;SDS011;63999;43.882;-0.310;2023-02-23T12:04:25;40.67;;;27.40;;
57565;SDS011;63999;43.882;-0.310;2023-02-23T12:07:49;72.28;;;49.42;;
57565;SDS011;63999;43.882;-0.310;2023-02-23T12:09:51;4.80;;;3.63;;
57565;SDS011;63999;43.882;-0.310;2023-02-23T12:12:24;6.85;;;5.47;;
57565;SDS011;63999;43.882;-0.310;2023-02-23T12:14:54;4.97;;;3.58;;
57565;SDS011;63999;43.882;-0.310;2023-02-23T12:17:30;9.57;;;7.07;;
57565;SDS011;63999;43.882;-0.310;2023-02-23T12:20:10;6.78;;;4.35;;
57565;SDS011;63999;43.882;-0.310;2023-02-23T12:23:01;2.75;;;2.17;;
57565;SDS011;63999;43.882;-0.310;2023-02-23T12:28:11;2.75;;;2.10;;
57565;SDS011;63999;43.882;-0.310;2023-02-23T12:33:56;2.90;;;1.63;;
57565;SDS011;63999;43.882;-0.310;2023-02-23T12:41:47;41.95;;;38.00;;
57565;SDS011;63999;43.882;-0.310;2023-02-23T12:47:00;18.77;;;16.88;;
57565;SDS011;63999;43.882;-0.310;2023-02-23T12:49:45;10.50;;;9.50;;
57565;SDS011;63999;43.882;-0.310;2023-02-23T12:52:40;9.73;;;8.85;;
57565;SDS011;63999;43.882;-0.310;2023-02-23T12:55:13;4.47;;;4.07;;
57565;SDS011;63999;43.882;-0.310;2023-02-23T12:57:43;4.13;;;3.33;;
57565;SDS011;63999;43.882;-0.310;2023-02-23T13:09:24;29.23;;;12.10;;
57565;SDS011;63999;43.882;-0.310;2023-02-23T13:20:55;2.95;;;0.95;;
57565;SDS011;63999;43.882;-0.310;2023-02-23T13:24:04;4.50;;;1.88;;
57565;SDS011;63999;43.882;-0.310;2023-02-23T13:26:48;5.95;;;1.77;;
57565;SDS011;63999;43.882;-0.310;2023-02-23T13:31:58;4.15;;;1.55;;
57565;SDS011;63999;43.882;-0.310;2023-02-23T13:34:35;6.57;;;1.40;;
57565;SDS011;63999;43.882;-0.310;2023-02-23T13:37:06;6.95;;;1.63;;
57565;SDS011;63999;43.882;-0.310;2023-02-23T13:45:10;8.07;;;2.00;;
57565;SDS011;63999;43.882;-0.310;2023-02-23T13:56:17;4.47;;;1.40;;
57565;SDS011;63999;43.882;-0.310;2023-02-23T13:58:47;4.63;;;1.48;;
57565;SDS011;63999;43.882;-0.310;2023-02-23T14:01:22;3.10;;;1.30;;
57565;SDS011;63999;43.882;-0.310;2023-02-23T14:03:57;29.70;;;19.30;;
57565;SDS011;63999;43.882;-0.310;2023-02-23T14:06:26;3.22;;;1.40;;
57565;SDS011;63999;43.882;-0.310;2023-02-23T14:08:56;5.32;;;1.85;;
57565;SDS011;63999;43.882;-0.310;2023-02-23T14:11:39;15.15;;;9.55;;
57565;SDS011;63999;43.882;-0.310;2023-02-23T14:14:12;5.63;;;2.97;;
57565;SDS011;63999;43.882;-0.310;2023-02-23T14:16:41;6.20;;;3.08;;
57565;SDS011;63999;43.882;-0.310;2023-02-23T14:19:29;6.80;;;2.88;;
57565;SDS011;63999;43.882;-0.310;2023-02-23T14:24:30;5.63;;;1.90;;
57565;SDS011;63999;43.882;-0.310;2023-02-23T14:27:56;5.20;;;2.90;;
57565;SDS011;63999;43.882;-0.310;2023-02-23T14:32:38;8.23;;;2.05;;
57565;SDS011;63999;43.882;-0.310;2023-02-23T14:35:13;6.53;;;2.08;;
57565;SDS011;63999;43.882;-0.310;2023-02-23T14:38:07;3.97;;;1.80;;
57565;SDS011;63999;43.882;-0.310;2023-02-23T14:40:38;8.23;;;2.20;;
57565;SDS011;63999;43.882;-0.310;2023-02-23T14:43:29;7.32;;;2.30;;
57565;SDS011;63999;43.882;-0.310;2023-02-23T14:46:10;8.02;;;2.05;;
57565;SDS011;63999;43.882;-0.310;2023-02-23T14:49:22;8.95;;;2.17;;
57565;SDS011;63999;43.882;-0.310;2023-02-23T14:51:48;7.82;;;1.77;;
57565;SDS011;63999;43.882;-0.310;2023-02-23T14:56:49;6.80;;;1.70;;
57565;SDS011;63999;43.882;-0.310;2023-02-23T14:59:18;6.70;;;2.50;;
57565;SDS011;63999;43.882;-0.310;2023-02-23T15:01:45;23.75;;;8.52;;
57565;SDS011;63999;43.882;-0.310;2023-02-23T15:04:12;44.80;;;14.85;;
57565;SDS011;63999;43.882;-0.310;2023-02-23T15:06:44;6.18;;;2.00;;
57565;SDS011;63999;43.882;-0.310;2023-02-23T15:09:35;5.22;;;1.75;;
57565;SDS011;63999;43.882;-0.310;2023-02-23T15:12:05;35.05;;;12.20;;
57565;SDS011;63999;43.882;-0.310;2023-02-23T15:14:38;12.13;;;3.42;;
57565;SDS011;63999;43.882;-0.310;2023-02-23T15:17:05;8.20;;;2.03;;
57565;SDS011;63999;43.882;-0.310;2023-02-23T15:19:35;4.18;;;1.20;;
57565;SDS011;63999;43.882;-0.310;2023-02-23T15:22:03;5.22;;;1.30;;
57565;SDS011;63999;43.882;-0.310;2023-02-23T15:24:31;4.07;;;1.52;;
57565;SDS011;63999;43.882;-0.310;2023-02-23T15:27:13;9.65;;;3.45;;
57565;SDS011;63999;43.882;-0.310;2023-02-23T15:29:48;7.40;;;1.80;;
57565;SDS011;63999;43.882;-0.310;2023-02-23T15:32:19;5.47;;;1.42;;
57565;SDS011;63999;43.882;-0.310;2023-02-23T15:34:47;5.60;;;1.98;;
57565;SDS011;63999;43.882;-0.310;2023-02-23T15:39:59;5.22;;;1.80;;
57565;SDS011;63999;43.882;-0.310;2023-02-23T15:42:37;5.25;;;1.60;;
57565;SDS011;63999;43.882;-0.310;2023-02-23T15:45:16;7.15;;;1.70;;
57565;SDS011;63999;43.882;-0.310;2023-02-23T15:47:58;8.60;;;2.83;;
57565;SDS011;63999;43.882;-0.310;2023-02-23T15:50:32;8.82;;;2.67;;
57565;SDS011;63999;43.882;-0.310;2023-02-23T15:53:02;7.95;;;1.80;;
57565;SDS011;63999;43.882;-0.310;2023-02-23T15:55:38;5.95;;;1.98;;
57565;SDS011;63999;43.882;-0.310;2023-02-23T16:00:59;7.38;;;2.00;;
57565;SDS011;63999;43.882;-0.310;2023-02-23T16:03:33;6.18;;;1.50;;
57565;SDS011;63999;43.882;-0.310;2023-02-23T16:06:05;4.60;;;1.60;;
57565;SDS011;63999;43.882;-0.310;2023-02-23T16:08:33;5.70;;;1.30;;
57565;SDS011;63999;43.882;-0.310;2023-02-23T16:11:01;8.45;;;6.40;;
57565;SDS011;63999;43.882;-0.310;2023-02-23T16:13:36;7.80;;;2.15;;
57565;SDS011;63999;43.882;-0.310;2023-02-23T16:16:08;8.18;;;2.47;;
57565;SDS011;63999;43.882;-0.310;2023-02-23T16:18:43;9.05;;;2.85;;
57565;SDS011;63999;43.882;-0.310;2023-02-23T16:21:16;5.90;;;2.13;;
57565;SDS011;63999;43.882;-0.310;2023-02-23T16:23:48;10.35;;;3.28;;
57565;SDS011;63999;43.882;-0.310;2023-02-23T16:26:25;6.47;;;2.70;;
57565;SDS011;63999;43.882;-0.310;2023-02-23T16:29:00;6.15;;;2.42;;
57565;SDS011;63999;43.882;-0.310;2023-02-23T16:34:23;10.85;;;3.72;;
57565;SDS011;63999;43.882;-0.310;2023-02-23T16:36:59;9.02;;;2.47;;
57565;SDS011;63999;43.882;-0.310;2023-02-23T16:39:29;8.48;;;2.50;;
57565;SDS011;63999;43.882;-0.310;2023-02-23T16:41:58;12.40;;;8.38;;
57565;SDS011;63999;43.882;-0.310;2023-02-23T16:44:26;6.97;;;1.60;;
57565;SDS011;63999;43.882;-0.310;2023-02-23T16:49:29;9.27;;;2.28;;
57565;SDS011;63999;43.882;-0.310;2023-02-23T16:51:57;7.30;;;1.90;;
57565;SDS011;63999;43.882;-0.310;2023-02-23T16:54:24;7.25;;;2.38;;
57565;SDS011;63999;43.882;-0.310;2023-02-23T16:56:53;14.43;;;7.63;;
57565;SDS011;63999;43.882;-0.310;2023-02-23T16:59:21;9.25;;;3.83;;
57565;SDS011;63999;43.882;-0.310;2023-02-23T17:01:48;9.35;;;3.88;;
57565;SDS011;63999;43.882;-0.310;2023-02-23T17:04:16;11.18;;;6.63;;
57565;SDS011;63999;43.882;-0.310;2023-02-23T17:06:45;10.07;;;6.68;;
57565;SDS011;63999;43.882;-0.310;2023-02-23T17:09:22;8.15;;;4.45;;
57565;SDS011;63999;43.882;-0.310;2023-02-23T17:11:49;8.05;;;4.47;;
57565;SDS011;63999;43.882;-0.310;2023-02-23T17:14:23;8.50;;;4.28;;
57565;SDS011;63999;43.882;-0.310;2023-02-23T17:16:52;8.27;;;4.05;;
57565;SDS011;63999;43.882;-0.310;2023-02-23T17:19:20;19.42;;;11.43;;
57565;SDS011;63999;43.882;-0.310;2023-02-23T17:21:48;18.73;;;8.38;;
57565;SDS011;63999;43.882;-0.310;2023-02-23T17:24:15;10.57;;;5.30;;
57565;SDS011;63999;43.882;-0.310;2023-02-23T17:26:43;9.75;;;3.40;;
57565;SDS011;63999;43.882;-0.310;2023-02-23T17:29:12;7.90;;;1.98;;
57565;SDS011;63999;43.882;-0.310;2023-02-23T17:31:39;6.90;;;2.50;;